createdAt,value
2022-10-26T00:02:28.762Z,9.18
2022-10-26T00:05:32.979Z,9.55
2022-10-26T00:08:35.439Z,9.52
2022-10-26T00:11:37.385Z,9.40
2022-10-26T00:14:39.298Z,9.35
2022-10-26T00:17:41.291Z,9.17
2022-10-26T00:20:43.212Z,10.13
2022-10-26T00:23:45.209Z,10.02
2022-10-26T00:26:47.493Z,9.60
2022-10-26T00:29:49.419Z,10.25
2022-10-26T00:32:51.385Z,11.00
2022-10-26T00:35:54.120Z,11.57
2022-10-26T00:38:56.725Z,11.02
2022-10-26T00:41:58.649Z,10.82
2022-10-26T00:45:02.898Z,10.18
2022-10-26T00:48:07.394Z,12.57
2022-10-26T00:51:11.967Z,11.90
2022-10-26T00:54:18.400Z,13.35
2022-10-26T00:57:20.388Z,11.90
2022-10-26T01:00:22.371Z,11.60
2022-10-26T01:03:28.163Z,11.95
2022-10-26T01:06:31.283Z,11.13
2022-10-26T01:09:33.236Z,12.00
2022-10-26T01:12:35.252Z,13.43
2022-10-26T01:15:40.001Z,13.05
2022-10-26T01:18:53.989Z,12.82
2022-10-26T01:22:02.208Z,12.02
2022-10-26T01:25:13.001Z,12.45
2022-10-26T01:28:35.185Z,12.18
2022-10-26T01:31:47.518Z,12.93
2022-10-26T01:34:56.598Z,12.68
2022-10-26T01:38:04.304Z,12.30
2022-10-26T01:41:15.456Z,13.13
2022-10-26T01:44:31.784Z,13.35
2022-10-26T01:47:34.433Z,12.07
2022-10-26T01:50:37.122Z,13.57
2022-10-26T01:53:44.623Z,12.30
2022-10-26T01:56:57.403Z,12.93
2022-10-26T02:00:02.152Z,12.05
2022-10-26T02:03:16.081Z,12.23
2022-10-26T02:06:35.048Z,13.07
2022-10-26T02:09:55.557Z,18.35
2022-10-26T02:12:57.456Z,15.73
2022-10-26T02:16:02.587Z,17.00
2022-10-26T02:19:14.514Z,13.75
2022-10-26T02:22:25.306Z,14.48
2022-10-26T02:25:31.553Z,14.70
2022-10-26T02:28:34.864Z,15.02
2022-10-26T02:31:37.860Z,15.30
2022-10-26T02:34:40.933Z,14.38
2022-10-26T02:37:44.496Z,15.80
2022-10-26T02:40:47.578Z,15.45
2022-10-26T02:44:09.750Z,15.65
2022-10-26T02:47:12.002Z,13.77
2022-10-26T02:50:14.009Z,15.55
2022-10-26T02:53:19.737Z,16.30
2022-10-26T02:56:24.885Z,15.60
2022-10-26T02:59:28.633Z,16.13
2022-10-26T03:02:30.579Z,15.95
2022-10-26T03:05:32.753Z,15.95
2022-10-26T03:08:34.708Z,14.65
2022-10-26T03:11:36.716Z,16.65
2022-10-26T03:14:38.637Z,16.20
2022-10-26T03:17:40.580Z,17.00
2022-10-26T03:20:44.113Z,16.83
2022-10-26T03:23:47.925Z,17.10
2022-10-26T03:26:49.839Z,17.87
2022-10-26T03:29:51.830Z,20.10
2022-10-26T03:32:54.244Z,25.40
2022-10-26T03:35:57.017Z,25.23
2022-10-26T03:38:59.148Z,18.80
2022-10-26T03:42:01.097Z,18.63
2022-10-26T03:45:03.455Z,20.13
2022-10-26T03:48:05.569Z,24.87
2022-10-26T03:51:07.511Z,24.50
2022-10-26T03:54:09.568Z,23.52
2022-10-26T03:57:11.501Z,23.87
2022-10-26T04:00:15.485Z,18.85
2022-10-26T04:03:18.995Z,17.60
2022-10-26T04:06:20.931Z,17.92
2022-10-26T04:09:22.921Z,23.67
2022-10-26T04:12:24.879Z,22.60
2022-10-26T04:15:27.391Z,21.58
2022-10-26T04:18:29.373Z,24.53
2022-10-26T04:21:33.170Z,20.10
2022-10-26T04:24:35.120Z,21.08
2022-10-26T04:27:37.044Z,24.03
2022-10-26T04:30:39.076Z,20.65
2022-10-26T04:33:41.026Z,20.65
2022-10-26T04:36:42.977Z,24.20
2022-10-26T04:39:44.949Z,22.13
2022-10-26T04:42:47.981Z,22.58
2022-10-26T04:45:50.332Z,22.40
2022-10-26T04:48:52.291Z,21.63
2022-10-26T04:51:54.292Z,22.17
2022-10-26T04:54:56.294Z,20.08
2022-10-26T04:58:01.063Z,21.13
2022-10-26T05:01:03.933Z,20.83
2022-10-26T05:04:06.004Z,19.48
2022-10-26T05:07:07.937Z,20.52
2022-10-26T05:10:10.427Z,21.90
2022-10-26T05:13:12.371Z,22.17
2022-10-26T05:16:14.660Z,23.55
2022-10-26T05:19:16.787Z,25.10
2022-10-26T05:22:18.903Z,24.38
2022-10-26T05:25:20.920Z,25.08
2022-10-26T05:28:22.904Z,28.83
2022-10-26T05:31:24.921Z,30.45
2022-10-26T05:34:26.909Z,32.53
2022-10-26T05:37:29.679Z,34.63
2022-10-26T05:40:31.629Z,33.05
2022-10-26T05:43:33.669Z,28.13
2022-10-26T05:46:37.724Z,27.55
2022-10-26T05:49:39.798Z,28.50
2022-10-26T05:52:43.130Z,29.70
2022-10-26T05:55:45.399Z,28.95
2022-10-26T05:58:47.870Z,29.30
2022-10-26T06:02:00.889Z,28.63
2022-10-26T06:05:12.232Z,27.23
2022-10-26T06:08:14.869Z,25.45
2022-10-26T06:11:17.324Z,24.67
2022-10-26T06:14:19.415Z,27.17
2022-10-26T06:17:21.581Z,27.15
2022-10-26T06:20:29.639Z,23.20
2022-10-26T06:23:50.169Z,23.77
2022-10-26T06:26:55.095Z,23.35
2022-10-26T06:29:57.182Z,22.83
2022-10-26T06:33:06.585Z,22.58
2022-10-26T06:36:23.735Z,22.15
2022-10-26T06:39:27.149Z,24.95
2022-10-26T06:42:37.523Z,20.73
2022-10-26T06:45:41.242Z,24.88
2022-10-26T06:49:04.424Z,20.98
2022-10-26T06:52:16.157Z,18.83
2022-10-26T06:55:18.461Z,15.60
2022-10-26T06:58:22.596Z,15.05
2022-10-26T07:01:24.726Z,13.90
2022-10-26T07:04:26.889Z,15.13
2022-10-26T07:07:30.157Z,12.93
2022-10-26T07:10:32.407Z,12.32
2022-10-26T07:13:34.514Z,13.80
2022-10-26T07:16:37.480Z,14.47
2022-10-26T07:19:40.647Z,15.68
2022-10-26T07:22:43.002Z,13.57
2022-10-26T07:25:45.229Z,12.02
2022-10-26T07:28:48.506Z,12.60
2022-10-26T07:31:50.972Z,12.37
2022-10-26T07:34:53.026Z,10.32
2022-10-26T07:37:58.838Z,10.00
2022-10-26T07:41:01.878Z,9.38
2022-10-26T07:44:03.977Z,11.07
2022-10-26T07:47:06.074Z,12.33
2022-10-26T07:50:08.635Z,14.43
2022-10-26T07:53:10.914Z,10.73
2022-10-26T07:56:13.308Z,10.57
2022-10-26T07:59:18.654Z,9.85
2022-10-26T08:02:21.299Z,8.60
2022-10-26T08:05:23.587Z,8.20
2022-10-26T08:08:25.614Z,7.95
2022-10-26T08:11:28.212Z,7.32
2022-10-26T08:14:30.342Z,6.82
2022-10-26T08:17:32.327Z,8.43
2022-10-26T08:20:35.451Z,6.22
2022-10-26T08:23:37.493Z,7.32
2022-10-26T08:26:39.486Z,6.53
2022-10-26T08:29:41.869Z,6.22
2022-10-26T08:32:44.324Z,5.97
2022-10-26T08:35:46.877Z,5.88
2022-10-26T08:38:49.071Z,5.47
2022-10-26T08:41:53.895Z,5.15
2022-10-26T08:45:01.457Z,4.93
2022-10-26T08:48:05.362Z,5.27
2022-10-26T08:51:10.962Z,3.90
2022-10-26T08:54:22.893Z,4.13
2022-10-26T08:57:41.424Z,3.97
2022-10-26T09:00:44.499Z,4.05
2022-10-26T09:03:46.493Z,4.17
2022-10-26T09:06:58.153Z,4.60
2022-10-26T09:10:02.915Z,4.97
2022-10-26T09:13:24.779Z,3.85
2022-10-26T09:16:43.438Z,4.50
2022-10-26T09:20:04.173Z,4.00
2022-10-26T09:23:39.082Z,3.40
2022-10-26T09:26:44.589Z,3.42
2022-10-26T09:29:47.765Z,2.78
2022-10-26T09:32:51.561Z,3.63
2022-10-26T09:36:03.844Z,3.37
2022-10-26T09:39:19.219Z,3.20
2022-10-26T09:42:50.675Z,3.50
2022-10-26T09:45:53.047Z,2.90
2022-10-26T09:48:58.282Z,3.40
2022-10-26T09:52:01.207Z,3.33
2022-10-26T09:55:03.432Z,2.65
2022-10-26T09:58:07.293Z,2.65
2022-10-26T10:01:42.679Z,2.53
2022-10-26T10:04:48.251Z,3.20
2022-10-26T10:07:50.583Z,2.03
2022-10-26T10:10:59.266Z,2.45
2022-10-26T10:14:06.532Z,2.65
2022-10-26T10:20:31.089Z,2.40
2022-10-26T10:23:37.182Z,2.20
2022-10-26T10:26:57.717Z,3.10
2022-10-26T10:30:13.599Z,2.80
2022-10-26T10:33:15.596Z,2.33
2022-10-26T10:36:20.356Z,2.22
2022-10-26T10:39:39.252Z,2.23
2022-10-26T10:42:42.475Z,3.08
2022-10-26T10:45:49.093Z,3.55
2022-10-26T10:48:52.899Z,3.78
2022-10-26T10:51:55.807Z,3.88
2022-10-26T10:55:15.104Z,2.60
2022-10-26T10:58:46.303Z,2.92
2022-10-26T11:02:08.770Z,1.98
2022-10-26T11:05:23.399Z,2.85
2022-10-26T11:08:28.383Z,2.70
2022-10-26T11:11:41.807Z,3.20
2022-10-26T11:14:56.547Z,2.78
2022-10-26T11:18:07.744Z,2.35
2022-10-26T11:21:26.580Z,2.30
2022-10-26T11:24:31.679Z,2.45
2022-10-26T11:27:40.281Z,1.83
2022-10-26T11:30:50.152Z,2.08
2022-10-26T11:34:10.685Z,2.10
2022-10-26T11:37:19.608Z,2.30
2022-10-26T11:40:40.376Z,2.50
2022-10-26T11:43:47.176Z,2.37
2022-10-26T11:47:01.755Z,1.90
2022-10-26T11:50:14.720Z,2.10
2022-10-26T11:53:21.250Z,2.00
2022-10-26T11:56:38.353Z,2.58
2022-10-26T11:59:43.854Z,1.90
2022-10-26T12:03:06.704Z,1.80
2022-10-26T12:06:08.682Z,1.92
2022-10-26T12:09:24.158Z,1.77
2022-10-26T12:12:39.045Z,2.05
2022-10-26T12:16:03.174Z,2.03
2022-10-26T12:19:12.430Z,2.28
2022-10-26T12:22:16.108Z,2.00
2022-10-26T12:25:19.816Z,2.28
2022-10-26T12:28:42.176Z,2.20
2022-10-26T12:31:44.245Z,1.47
2022-10-26T12:34:46.505Z,1.65
2022-10-26T12:37:48.630Z,2.28
2022-10-26T12:41:06.475Z,2.20
2022-10-26T12:44:31.594Z,2.33
2022-10-26T12:47:33.540Z,2.63
2022-10-26T12:50:35.523Z,1.90
2022-10-26T12:53:37.572Z,2.20
2022-10-26T12:56:50.186Z,2.03
2022-10-26T13:00:00.429Z,1.85
2022-10-26T13:03:08.419Z,2.23
2022-10-26T13:06:19.559Z,2.20
2022-10-26T13:09:23.198Z,2.35
2022-10-26T13:12:26.517Z,2.60
2022-10-26T13:15:28.495Z,2.38
2022-10-26T13:18:30.440Z,1.83
2022-10-26T13:21:45.272Z,2.03
2022-10-26T13:25:05.758Z,2.53
2022-10-26T13:28:27.618Z,2.05
2022-10-26T13:31:32.368Z,2.20
2022-10-26T13:34:34.602Z,2.30
2022-10-26T13:37:37.626Z,2.83
2022-10-26T13:40:41.261Z,2.60
2022-10-26T13:43:43.294Z,2.70
2022-10-26T13:46:46.753Z,2.75
2022-10-26T13:49:50.911Z,2.70
2022-10-26T13:52:58.354Z,3.60
2022-10-26T13:56:06.523Z,2.72
2022-10-26T13:59:10.366Z,2.30
2022-10-26T14:02:25.806Z,2.00
2022-10-26T14:05:27.743Z,2.47
2022-10-26T14:08:29.853Z,2.08
2022-10-26T14:11:34.346Z,2.55
2022-10-26T14:14:37.474Z,5.63
2022-10-26T14:17:39.474Z,2.42
2022-10-26T14:20:41.382Z,2.23
2022-10-26T14:23:47.390Z,2.00
2022-10-26T14:26:49.370Z,2.38
2022-10-26T14:30:20.362Z,2.20
2022-10-26T14:33:18.003Z,3.03
2022-10-26T14:36:21.733Z,3.30
2022-10-26T14:39:44.004Z,2.80
2022-10-26T14:42:50.775Z,2.40
2022-10-26T14:45:53.869Z,3.10
2022-10-26T14:48:57.240Z,3.65
2022-10-26T14:52:00.320Z,3.63
2022-10-26T14:55:02.320Z,4.38
2022-10-26T14:58:13.782Z,2.85
2022-10-26T15:01:21.835Z,3.25
2022-10-26T15:04:26.955Z,4.40
2022-10-26T15:07:36.172Z,8.77
2022-10-26T15:10:38.147Z,5.80
2022-10-26T15:13:42.872Z,9.55
2022-10-26T15:16:50.619Z,4.70
2022-10-26T15:19:53.719Z,3.40
2022-10-26T15:22:57.019Z,3.33
2022-10-26T15:26:02.710Z,4.32
2022-10-26T15:29:04.682Z,4.82
2022-10-26T15:32:18.800Z,3.83
2022-10-26T15:35:25.987Z,4.00
2022-10-26T15:38:31.852Z,3.67
2022-10-26T15:41:37.772Z,3.90
2022-10-26T15:44:42.117Z,4.18
2022-10-26T15:47:44.656Z,5.72
2022-10-26T15:50:46.593Z,6.13
2022-10-26T15:53:48.539Z,6.47
2022-10-26T15:56:50.522Z,5.47
2022-10-26T15:59:52.470Z,6.07
2022-10-26T16:02:54.533Z,6.35
2022-10-26T16:05:57.902Z,6.47
2022-10-26T16:09:03.918Z,7.33
2022-10-26T16:12:06.002Z,8.02
2022-10-26T16:15:09.333Z,17.17
2022-10-26T16:18:11.265Z,19.73
2022-10-26T16:21:14.055Z,30.90
2022-10-26T16:24:16.017Z,14.40
2022-10-26T16:27:17.941Z,18.85
2022-10-26T16:30:20.141Z,17.77
2022-10-26T16:33:22.137Z,17.55
2022-10-26T16:36:24.049Z,18.45
2022-10-26T16:39:26.001Z,17.70
2022-10-26T16:42:28.550Z,19.67
2022-10-26T16:45:30.476Z,18.30
2022-10-26T16:48:32.416Z,33.15
2022-10-26T16:51:34.921Z,114.07
2022-10-26T16:54:36.896Z,35.90
2022-10-26T16:57:38.958Z,45.72
2022-10-26T17:00:40.872Z,57.55
2022-10-26T17:03:42.816Z,47.60
2022-10-26T17:06:44.720Z,42.45
2022-10-26T17:09:46.653Z,34.97
2022-10-26T17:12:48.843Z,34.00
2022-10-26T17:15:51.045Z,31.60
2022-10-26T17:18:53.494Z,34.00
2022-10-26T17:21:55.465Z,25.67
2022-10-26T17:24:57.386Z,24.03
2022-10-26T17:27:59.593Z,23.48
2022-10-26T17:31:05.707Z,22.10
2022-10-26T17:34:07.766Z,23.00
2022-10-26T17:37:09.670Z,19.77
2022-10-26T17:40:11.772Z,16.87
2022-10-26T17:43:13.752Z,19.80
2022-10-26T17:46:17.737Z,26.67
2022-10-26T17:49:23.489Z,37.28
2022-10-26T17:52:28.416Z,30.63
2022-10-26T17:55:30.371Z,27.67
2022-10-26T17:58:33.672Z,22.20
2022-10-26T18:01:35.743Z,17.10
2022-10-26T18:04:37.781Z,14.98
2022-10-26T18:07:39.729Z,14.73
2022-10-26T18:10:51.525Z,13.87
2022-10-26T18:13:54.283Z,14.35
2022-10-26T18:16:56.232Z,19.05
2022-10-26T18:23:05.010Z,19.85
2022-10-26T18:26:11.429Z,15.23
2022-10-26T18:29:15.865Z,17.35
2022-10-26T18:32:17.916Z,15.05
2022-10-26T18:35:20.214Z,12.90
2022-10-26T18:38:22.178Z,12.98
2022-10-26T18:41:24.678Z,12.10
2022-10-26T18:44:26.671Z,11.43
2022-10-26T18:47:29.000Z,12.13
2022-10-26T18:50:30.920Z,11.85
2022-10-26T18:53:33.941Z,10.70
2022-10-26T18:56:35.908Z,12.00
2022-10-26T18:59:37.853Z,11.60
2022-10-26T19:02:39.794Z,11.25
2022-10-26T19:05:41.963Z,10.05
2022-10-26T19:08:44.288Z,10.80
2022-10-26T19:11:46.346Z,11.73
2022-10-26T19:14:48.443Z,10.85
2022-10-26T19:17:50.552Z,10.73
2022-10-26T19:20:57.191Z,8.90
2022-10-26T19:24:00.108Z,8.70
2022-10-26T19:27:02.515Z,8.70
2022-10-26T19:30:04.597Z,9.30
2022-10-26T19:33:06.520Z,9.38
2022-10-26T19:36:10.542Z,9.55
2022-10-26T19:39:16.001Z,10.50
2022-10-26T19:42:18.013Z,9.73
2022-10-26T19:45:19.957Z,13.70
2022-10-26T19:48:22.026Z,15.02
2022-10-26T19:51:24.645Z,15.05
2022-10-26T19:54:26.599Z,14.18
2022-10-26T19:57:28.537Z,16.57
2022-10-26T20:00:35.665Z,14.45
2022-10-26T20:03:37.791Z,15.93
2022-10-26T20:06:39.728Z,23.58
2022-10-26T20:09:41.708Z,17.45
2022-10-26T20:12:43.655Z,14.97
2022-10-26T20:15:45.657Z,14.90
2022-10-26T20:18:48.934Z,13.82
2022-10-26T20:21:51.191Z,13.18
2022-10-26T20:24:53.163Z,12.15
2022-10-26T20:27:55.076Z,14.23
2022-10-26T20:30:57.317Z,13.52
2022-10-26T20:33:59.234Z,12.23
2022-10-26T20:37:01.180Z,11.88
2022-10-26T20:40:03.645Z,11.95
2022-10-26T20:43:05.814Z,11.17
2022-10-26T20:46:11.330Z,13.85
2022-10-26T20:49:13.390Z,10.15
2022-10-26T20:52:21.293Z,10.15
2022-10-26T20:55:38.704Z,11.07
2022-10-26T20:58:44.087Z,11.30
2022-10-26T21:01:46.134Z,10.85
2022-10-26T21:04:48.090Z,12.32
2022-10-26T21:07:50.072Z,12.07
2022-10-26T21:10:52.598Z,12.30
2022-10-26T21:13:55.395Z,12.20
2022-10-26T21:16:57.352Z,12.98
2022-10-26T21:19:59.266Z,12.77
2022-10-26T21:23:01.216Z,11.90
2022-10-26T21:26:03.206Z,9.70
2022-10-26T21:29:05.143Z,12.13
2022-10-26T21:32:07.233Z,11.95
2022-10-26T21:35:09.197Z,11.33
2022-10-26T21:38:11.149Z,10.40
2022-10-26T21:41:14.411Z,7.47
2022-10-26T21:44:32.754Z,6.43
2022-10-26T21:47:38.381Z,7.32
2022-10-26T21:50:41.049Z,7.80
2022-10-26T21:53:43.102Z,9.35
2022-10-26T21:56:45.105Z,7.85
2022-10-26T21:59:47.024Z,8.73
2022-10-26T22:02:49.354Z,7.90
2022-10-26T22:05:52.034Z,8.75
2022-10-26T22:08:54.278Z,9.32
2022-10-26T22:11:56.213Z,8.50
2022-10-26T22:14:58.148Z,8.40
2022-10-26T22:18:00.085Z,10.00
2022-10-26T22:21:02.243Z,9.48
2022-10-26T22:24:04.532Z,10.68
2022-10-26T22:27:06.501Z,9.98
2022-10-26T22:30:08.772Z,9.60
2022-10-26T22:33:10.729Z,10.52
2022-10-26T22:36:13.624Z,10.18
2022-10-26T22:39:15.613Z,10.43
2022-10-26T22:42:17.902Z,10.23
2022-10-26T22:45:19.863Z,10.98
2022-10-26T22:48:21.809Z,12.98
2022-10-26T22:51:24.556Z,13.48
2022-10-26T22:54:26.520Z,14.13
2022-10-26T22:57:29.142Z,14.50
2022-10-26T23:00:31.103Z,12.60
2022-10-26T23:03:33.442Z,11.63
2022-10-26T23:06:35.442Z,15.67
2022-10-26T23:09:37.387Z,20.83
2022-10-26T23:12:39.288Z,26.10
2022-10-26T23:15:41.260Z,23.85
2022-10-26T23:18:43.312Z,22.93
2022-10-26T23:21:45.226Z,11.07
2022-10-26T23:24:47.201Z,10.90
2022-10-26T23:27:49.155Z,11.90
2022-10-26T23:30:51.121Z,11.20
2022-10-26T23:33:54.317Z,11.47
2022-10-26T23:36:56.264Z,11.90
2022-10-26T23:39:58.220Z,13.00
2022-10-26T23:43:00.288Z,14.15
2022-10-26T23:46:02.538Z,12.80
2022-10-26T23:49:04.448Z,15.15
2022-10-26T23:52:06.437Z,16.90
2022-10-26T23:55:08.590Z,17.80
2022-10-26T23:58:10.675Z,18.90
